Time;durP1;ratioP1;P1;durP2;ratioP2;P2;SDS_P1;SDS_P2;PMS_P1;PMS_P2;Temp;Humidity;BMP_temperature;BMP_pressure;BME280_temperature;BME280_humidity;BME280_pressure;Samples;Min_cycle;Max_cycle;Signal;HPM_P1;HPM_P2
2022/01/01 00:02:16;;;;;;;51.47;30.88;;;;;;;12.16;100.00;102194.25;10541794;28;20097;-59
2022/01/01 00:07:39;;;;;;;46.15;27.88;;;;;;;12.12;100.00;102203.16;10540480;28;20139;-59
2022/01/01 00:12:42;;;;;;;41.85;25.45;;;;;;;12.14;100.00;102207.44;10541681;28;20044;-60
2022/01/01 00:17:45;;;;;;;48.17;24.95;;;;;;;12.24;100.00;102210.53;10541254;28;20052;-60
2022/01/01 00:22:47;;;;;;;48.97;30.65;;;;;;;12.12;100.00;102211.91;10541360;28;20055;-59
2022/01/01 00:27:50;;;;;;;46.53;27.17;;;;;;;12.11;100.00;102219.84;10540866;28;20530;-59
2022/01/01 00:32:52;;;;;;;45.90;30.02;;;;;;;12.13;100.00;102212.75;10541016;28;20047;-60
2022/01/01 00:37:54;;;;;;;55.25;30.35;;;;;;;12.11;100.00;102218.06;10540709;28;20059;-59
2022/01/01 00:42:56;;;;;;;56.33;32.20;;;;;;;12.18;100.00;102206.38;10540273;28;20060;-59
2022/01/01 00:47:59;;;;;;;55.42;32.35;;;;;;;12.09;100.00;102217.28;10539540;28;20048;-59
2022/01/01 00:53:02;;;;;;;52.47;30.23;;;;;;;12.21;100.00;102218.53;10539945;28;20048;-60
2022/01/01 00:58:04;;;;;;;51.88;31.42;;;;;;;12.20;100.00;102217.66;10540401;28;20048;-59
2022/01/01 01:03:14;;;;;;;67.40;36.80;;;;;;;12.09;100.00;102217.28;10539778;28;20048;-60
2022/01/01 01:08:17;;;;;;;68.80;37.83;;;;;;;12.15;100.00;102218.78;10539983;28;20093;-59
2022/01/01 01:13:20;;;;;;;58.90;35.40;;;;;;;12.15;100.00;102222.25;10539326;28;20044;-61
2022/01/01 01:18:23;;;;;;;56.53;33.05;;;;;;;12.19;100.00;102221.22;10540491;28;20052;-59
2022/01/01 01:23:25;;;;;;;61.30;34.42;;;;;;;12.13;100.00;102223.25;10539122;28;20048;-59
2022/01/01 01:28:27;;;;;;;56.25;32.28;;;;;;;12.17;100.00;102225.69;10539367;28;20098;-59
2022/01/01 01:33:30;;;;;;;49.30;32.20;;;;;;;12.16;100.00;102234.47;10539044;28;20048;-59
2022/01/01 01:38:36;;;;;;;50.55;30.13;;;;;;;12.37;100.00;102237.13;10539274;28;20424;-59
2022/01/01 01:43:38;;;;;;;47.47;29.67;;;;;;;12.21;100.00;102243.00;10538772;28;20503;-59
2022/01/01 01:48:43;;;;;;;51.22;31.00;;;;;;;12.20;100.00;102251.78;10542308;28;20051;-60
2022/01/01 01:53:46;;;;;;;57.65;31.02;;;;;;;12.10;100.00;102247.84;10547641;28;20044;-59
2022/01/01 01:58:49;;;;;;;49.83;30.67;;;;;;;12.16;100.00;102247.59;10545841;28;20051;-59
2022/01/01 02:03:55;;;;;;;57.42;31.52;;;;;;;12.10;100.00;102265.38;10545314;28;20048;-59
2022/01/01 02:08:58;;;;;;;52.97;30.60;;;;;;;12.14;100.00;102273.06;10547035;28;20044;-59
2022/01/01 02:14:03;;;;;;;53.92;30.90;;;;;;;12.20;100.00;102264.91;10544837;28;20051;-60
2022/01/01 02:19:06;;;;;;;49.85;28.92;;;;;;;12.20;100.00;102259.66;10545949;28;20499;-59
2022/01/01 02:24:09;;;;;;;52.42;29.77;;;;;;;12.07;100.00;102267.22;10545580;28;20052;-59
2022/01/01 02:29:11;;;;;;;42.03;24.65;;;;;;;12.14;100.00;102272.19;10545412;28;20484;-60
2022/01/01 02:34:13;;;;;;;47.30;26.80;;;;;;;12.15;100.00;102252.91;10545462;28;20052;-60
2022/01/01 02:39:19;;;;;;;54.45;26.02;;;;;;;12.18;100.00;102253.63;10544405;28;20051;-60
2022/01/01 02:44:23;;;;;;;52.47;27.65;;;;;;;12.04;100.00;102250.72;10543890;28;20044;-59
2022/01/01 02:49:26;;;;;;;51.78;26.70;;;;;;;12.19;100.00;102265.00;10545048;28;20056;-59
2022/01/01 02:54:29;;;;;;;51.50;25.58;;;;;;;12.23;100.00;102266.59;10544942;28;20054;-59
2022/01/01 02:59:31;;;;;;;54.47;25.65;;;;;;;12.33;100.00;102270.53;10543368;28;20048;-60
2022/01/01 03:04:34;;;;;;;44.17;22.77;;;;;;;12.15;100.00;102273.91;10543334;28;20048;-59
2022/01/01 03:09:36;;;;;;;51.13;25.80;;;;;;;12.10;100.00;102260.97;10543630;28;20052;-59
2022/01/01 03:14:39;;;;;;;48.60;24.85;;;;;;;12.12;100.00;102247.78;10543787;28;20052;-60
2022/01/01 03:19:41;;;;;;;46.67;24.30;;;;;;;12.30;100.00;102238.31;10543541;28;20492;-59
2022/01/01 03:24:43;;;;;;;47.20;22.70;;;;;;;12.05;100.00;102244.53;10543167;28;20052;-60
2022/01/01 03:29:46;;;;;;;50.28;24.15;;;;;;;12.02;100.00;102239.41;10543465;28;20044;-60
2022/01/01 03:34:48;;;;;;;52.30;22.60;;;;;;;12.15;100.00;102248.50;10542955;28;20503;-60
2022/01/01 03:39:50;;;;;;;40.45;22.65;;;;;;;11.89;100.00;102249.53;10542873;28;20044;-59
2022/01/01 03:44:53;;;;;;;48.88;19.17;;;;;;;12.00;100.00;102236.00;10542552;28;20403;-59
2022/01/01 03:49:56;;;;;;;33.88;17.42;;;;;;;12.27;100.00;102234.88;10542235;28;20044;-59
2022/01/01 03:54:58;;;;;;;36.50;16.27;;;;;;;12.02;100.00;102216.66;10542151;28;20407;-60
2022/01/01 04:00:00;;;;;;;35.30;17.25;;;;;;;12.09;100.00;102209.41;10541948;28;20502;-59
2022/01/01 04:05:04;;;;;;;31.52;14.70;;;;;;;11.98;100.00;102225.56;10541426;28;20044;-60
2022/01/01 04:10:06;;;;;;;34.25;14.18;;;;;;;12.04;100.00;102224.47;10541248;28;20058;-59
2022/01/01 04:15:09;;;;;;;42.67;16.85;;;;;;;11.98;100.00;102229.97;10540180;28;20400;-59
2022/01/01 04:20:12;;;;;;;24.80;12.95;;;;;;;12.01;100.00;102219.34;10541975;28;20048;-59
2022/01/01 04:25:14;;;;;;;31.02;14.52;;;;;;;12.20;100.00;102229.94;10541021;28;20043;-60
2022/01/01 04:30:16;;;;;;;27.20;12.93;;;;;;;12.20;100.00;102224.69;10541015;28;20071;-60
2022/01/01 04:35:19;;;;;;;23.65;12.50;;;;;;;12.19;100.00;102231.72;10540739;28;20055;-59
2022/01/01 04:40:21;;;;;;;22.15;13.95;;;;;;;12.13;100.00;102244.25;10540258;28;20416;-59
2022/01/01 04:45:23;;;;;;;26.50;12.65;;;;;;;12.20;100.00;102237.81;10540331;28;20498;-59
2022/01/01 04:50:26;;;;;;;29.00;13.05;;;;;;;12.22;100.00;102239.47;10540242;28;20052;-61
2022/01/01 04:55:29;;;;;;;26.38;13.68;;;;;;;12.17;100.00;102238.81;10540137;28;20052;-59
2022/01/01 05:00:31;;;;;;;32.90;13.15;;;;;;;12.28;100.00;102233.09;10539957;28;20055;-59
2022/01/01 05:05:33;;;;;;;24.73;12.85;;;;;;;11.99;100.00;102234.31;10540545;28;20109;-60
2022/01/01 05:10:36;;;;;;;26.20;12.65;;;;;;;12.19;100.00;102242.22;10539511;28;20503;-59
2022/01/01 05:15:38;;;;;;;27.55;12.13;;;;;;;12.14;100.00;102241.56;10540189;28;20056;-60
2022/01/01 05:20:40;;;;;;;21.08;11.57;;;;;;;12.17;100.00;102245.81;10539549;28;20044;-60
2022/01/01 05:25:43;;;;;;;31.20;13.80;;;;;;;12.03;100.00;102235.88;10546359;28;20131;-59
2022/01/01 05:30:45;;;;;;;26.80;12.38;;;;;;;11.97;100.00;102238.75;10548436;28;20043;-61
2022/01/01 05:35:47;;;;;;;28.17;13.20;;;;;;;11.84;100.00;102238.38;10548540;28;20044;-59
2022/01/01 05:40:50;;;;;;;25.08;12.45;;;;;;;11.92;100.00;102238.09;10547689;28;20044;-59
2022/01/01 05:45:52;;;;;;;19.63;12.15;;;;;;;11.72;100.00;102234.47;10546529;28;20055;-59
2022/01/01 05:50:55;;;;;;;24.65;11.48;;;;;;;11.91;100.00;102234.63;10547226;28;20048;-60
2022/01/01 05:55:57;;;;;;;20.85;10.98;;;;;;;12.01;100.00;102230.69;10546184;28;20074;-59
2022/01/01 06:00:59;;;;;;;29.35;11.70;;;;;;;12.01;100.00;102233.31;10546667;28;20408;-60
2022/01/01 06:06:02;;;;;;;24.20;10.20;;;;;;;12.13;100.00;102236.38;10545924;28;20051;-60
2022/01/01 06:11:24;;;;;;;22.73;9.20;;;;;;;12.10;100.00;102232.09;10546785;28;20051;-60
2022/01/01 06:16:27;;;;;;;18.08;8.88;;;;;;;11.99;100.00;102218.56;10547423;28;20071;-59
2022/01/01 06:21:29;;;;;;;29.90;12.13;;;;;;;11.98;100.00;102215.06;10546058;28;20059;-59
2022/01/01 06:26:31;;;;;;;15.73;9.63;;;;;;;11.80;100.00;102215.78;10545920;28;20051;-59
2022/01/01 06:31:34;;;;;;;17.88;8.55;;;;;;;11.93;100.00;102229.31;10545868;28;20044;-59
2022/01/01 06:36:36;;;;;;;20.75;9.35;;;;;;;11.94;100.00;102238.91;10545149;28;20131;-59
2022/01/01 06:41:39;;;;;;;17.75;7.75;;;;;;;11.96;100.00;102234.44;10544554;28;20488;-59
2022/01/01 06:46:41;;;;;;;16.80;9.05;;;;;;;11.96;100.00;102231.81;10544675;28;20532;-59
2022/01/01 06:51:44;;;;;;;14.35;8.23;;;;;;;12.00;100.00;102239.50;10544677;28;20480;-58
2022/01/01 06:56:46;;;;;;;24.30;9.20;;;;;;;11.83;100.00;102255.03;10545219;28;20048;-59
2022/01/01 07:01:49;;;;;;;14.02;8.30;;;;;;;11.80;100.00;102250.75;10544384;28;20135;-58
2022/01/01 07:06:51;;;;;;;20.75;9.27;;;;;;;11.66;100.00;102253.06;10544535;28;20040;-59
2022/01/01 07:11:57;;;;;;;18.42;8.05;;;;;;;11.55;100.00;102250.88;10543984;28;20040;-59
2022/01/01 07:16:59;;;;;;;21.48;8.93;;;;;;;11.27;100.00;102264.16;10544726;28;20059;-59
2022/01/01 07:22:01;;;;;;;15.52;7.85;;;;;;;11.37;100.00;102267.28;10543496;28;20127;-59
2022/01/01 07:27:04;;;;;;;20.73;9.10;;;;;;;11.38;100.00;102268.97;10544148;28;20048;-59
2022/01/01 07:32:07;;;;;;;15.77;7.78;;;;;;;11.27;100.00;102272.88;10543239;28;20048;-60
2022/01/01 07:37:09;;;;;;;22.20;9.68;;;;;;;11.34;100.00;102283.97;10543617;28;20500;-60
2022/01/01 07:42:14;;;;;;;19.58;7.57;;;;;;;11.54;100.00;102283.25;10542665;28;20400;-59
2022/01/01 07:47:17;;;;;;;20.05;7.80;;;;;;;11.46;100.00;102283.50;10542179;28;20055;-59
2022/01/01 07:52:19;;;;;;;22.40;8.18;;;;;;;11.37;100.00;102283.88;10542205;28;20044;-59
2022/01/01 07:57:21;;;;;;;15.27;7.03;;;;;;;11.26;100.00;102281.66;10541058;28;20389;-60
2022/01/01 08:02:24;;;;;;;20.10;6.75;;;;;;;11.33;100.00;102285.75;10540568;28;20052;-59
2022/01/01 08:07:26;;;;;;;19.23;7.18;;;;;;;11.28;100.00;102298.19;10542167;28;20120;-60
2022/01/01 08:12:49;;;;;;;18.00;7.18;;;;;;;11.42;100.00;102299.44;10541010;28;20044;-60
2022/01/01 08:17:51;;;;;;;23.23;6.93;;;;;;;11.60;100.00;102305.75;10541485;28;20056;-59
2022/01/01 08:22:53;;;;;;;19.33;7.03;;;;;;;11.50;100.00;102295.63;10541211;28;20044;-59
2022/01/01 08:27:56;;;;;;;17.40;7.80;;;;;;;11.65;100.00;102290.69;10540092;28;20048;-60
2022/01/01 08:33:01;;;;;;;19.58;6.97;;;;;;;11.48;100.00;102281.72;10540908;28;20040;-60
2022/01/01 08:38:04;;;;;;;16.52;7.40;;;;;;;11.68;100.00;102277.47;10540403;28;20077;-60
2022/01/01 08:43:07;;;;;;;18.63;7.03;;;;;;;11.82;100.00;102272.53;10540474;28;20074;-59
2022/01/01 08:48:09;;;;;;;9.98;6.30;;;;;;;11.88;100.00;102261.81;10540659;28;20063;-59
2022/01/01 08:53:11;;;;;;;19.88;6.78;;;;;;;12.12;100.00;102268.78;10540144;28;20492;-59
2022/01/01 08:58:14;;;;;;;16.77;6.20;;;;;;;11.97;100.00;102265.88;10539342;28;20054;-59
2022/01/01 09:03:27;;;;;;;10.15;5.65;;;;;;;12.06;100.00;102268.13;10540012;28;20442;-59
2022/01/01 09:08:31;;;;;;;12.55;5.03;;;;;;;12.09;100.00;102277.66;10538649;28;20040;-59
2022/01/01 09:13:33;;;;;;;10.88;5.28;;;;;;;12.08;100.00;102271.53;10539029;28;20070;-59
2022/01/01 09:18:37;;;;;;;9.18;5.15;;;;;;;12.35;100.00;102287.06;10538968;28;20416;-59
2022/01/01 09:23:39;;;;;;;14.23;5.35;;;;;;;12.18;100.00;102289.56;10539662;28;20054;-59
2022/01/01 09:28:41;;;;;;;15.25;6.13;;;;;;;12.28;100.00;102283.00;10539332;28;20411;-59
2022/01/01 09:33:44;;;;;;;8.70;5.20;;;;;;;12.28;100.00;102275.13;10539302;28;20519;-60
2022/01/01 09:38:46;;;;;;;8.40;5.07;;;;;;;12.36;100.00;102287.94;10539784;28;20055;-59
2022/01/01 09:43:48;;;;;;;12.65;5.40;;;;;;;12.45;100.00;102284.94;10538759;28;20514;-59
2022/01/01 09:48:51;;;;;;;10.73;4.50;;;;;;;12.42;100.00;102264.91;10537649;28;20423;-59
2022/01/01 09:53:53;;;;;;;10.20;4.57;;;;;;;12.45;100.00;102254.25;10537923;28;20047;-59
2022/01/01 09:58:56;;;;;;;9.18;5.40;;;;;;;12.37;100.00;102256.38;10538971;28;20405;-59
2022/01/01 10:03:59;;;;;;;10.48;5.32;;;;;;;12.42;100.00;102257.03;10538891;28;20046;-60
2022/01/01 10:09:03;;;;;;;14.60;5.40;;;;;;;12.45;100.00;102256.03;10540787;28;20054;-59
2022/01/01 10:14:07;;;;;;;11.02;5.38;;;;;;;12.58;100.00;102254.59;10546494;28;20048;-60
2022/01/01 10:19:09;;;;;;;14.23;6.03;;;;;;;12.61;100.00;102241.34;10546019;28;20484;-60
2022/01/01 10:24:14;;;;;;;10.23;5.35;;;;;;;12.67;100.00;102231.47;10545687;28;20044;-59
2022/01/01 10:29:28;;;;;;;11.60;6.20;;;;;;;12.72;100.00;102222.47;10545853;28;20052;-60
2022/01/01 10:34:33;;;;;;;10.55;5.85;;;;;;;12.80;100.00;102222.16;10545779;28;20507;-60
2022/01/01 10:39:56;;;;;;;10.88;5.18;;;;;;;13.31;98.89;102207.53;10545914;28;20109;-60
2022/01/01 10:44:58;;;;;;;9.27;5.00;;;;;;;13.26;98.29;102206.06;10545335;28;20044;-60
2022/01/01 10:55:16;;;;;;;9.07;5.07;;;;;;;13.42;97.77;102190.47;10544875;28;20040;-59
2022/01/01 11:00:27;;;;;;;10.13;4.43;;;;;;;13.29;98.49;102192.78;10544513;28;20052;-59
2022/01/01 11:05:34;;;;;;;10.70;5.40;;;;;;;13.45;98.19;102196.44;10544387;28;20040;-59
2022/01/01 11:10:38;;;;;;;14.30;5.28;;;;;;;13.55;98.39;102194.22;10543602;28;20067;-59
2022/01/01 11:15:40;;;;;;;9.50;5.18;;;;;;;13.81;95.74;102184.19;10543709;28;20052;-59
2022/01/01 11:20:44;;;;;;;9.93;4.82;;;;;;;13.97;94.97;102181.66;10542658;28;20048;-59
2022/01/01 11:25:46;;;;;;;7.70;4.80;;;;;;;13.86;95.59;102184.81;10543507;28;20044;-59
2022/01/01 11:30:57;;;;;;;7.97;4.15;;;;;;;13.77;94.83;102180.88;10543675;28;20055;-60
2022/01/01 11:36:00;;;;;;;8.10;4.18;;;;;;;13.73;95.55;102180.19;10543290;28;20052;-59
2022/01/01 11:41:14;;;;;;;7.93;4.65;;;;;;;14.02;95.19;102172.63;10543048;28;20055;-60
2022/01/01 11:46:23;;;;;;;7.85;4.30;;;;;;;14.47;91.61;102183.50;10542863;28;20048;-60
2022/01/01 11:51:35;;;;;;;10.45;4.75;;;;;;;14.49;90.59;102179.88;10542522;28;20052;-60
2022/01/01 11:56:49;;;;;;;11.10;4.43;;;;;;;14.34;91.94;102178.03;10542025;28;20101;-60
2022/01/01 12:01:54;;;;;;;9.20;3.97;;;;;;;14.11;91.25;102184.47;10542234;28;20048;-59
2022/01/01 12:07:15;;;;;;;7.45;4.28;;;;;;;14.11;90.78;102181.81;10541755;28;20060;-59
2022/01/01 12:12:39;;;;;;;10.90;4.17;;;;;;;14.22;92.19;102173.38;10542024;28;20044;-60
2022/01/01 12:17:48;;;;;;;9.80;3.67;;;;;;;13.92;91.41;102166.09;10541511;28;20058;-60
2022/01/01 12:22:51;;;;;;;10.00;4.50;;;;;;;13.90;92.16;102171.44;10540663;28;20392;-60
2022/01/01 12:28:00;;;;;;;9.23;4.10;;;;;;;13.99;93.03;102177.19;10541369;28;20074;-59
2022/01/01 12:33:02;;;;;;;5.50;4.03;;;;;;;14.00;93.47;102174.44;10539581;28;20435;-60
2022/01/01 12:38:10;;;;;;;3.72;3.33;;;;;;;14.04;92.87;102165.47;10540719;28;20423;-59
2022/01/01 12:43:15;;;;;;;6.70;4.18;;;;;;;14.10;92.95;102175.72;10540749;28;20055;-59
2022/01/01 12:48:32;;;;;;;13.05;4.43;;;;;;;14.08;93.56;102179.34;10540304;28;20492;-60
2022/01/01 12:53:38;;;;;;;9.65;4.22;;;;;;;13.73;95.34;102171.41;10540104;28;20381;-60
2022/01/01 12:58:46;;;;;;;10.05;4.18;;;;;;;13.47;94.36;102122.69;10539312;28;20385;-59
2022/01/01 13:04:04;;;;;;;5.47;4.15;;;;;;;13.53;95.78;102115.34;10540057;28;20051;-59
2022/01/01 13:09:13;;;;;;;10.20;4.57;;;;;;;13.57;94.52;102111.63;10540670;28;20054;-60
2022/01/01 13:14:16;;;;;;;6.47;4.22;;;;;;;13.64;95.85;102127.13;10539770;28;20051;-59
2022/01/01 13:19:18;;;;;;;8.82;3.97;;;;;;;13.59;94.82;102126.50;10540471;28;20044;-60
2022/01/01 13:24:27;;;;;;;6.88;3.65;;;;;;;13.59;95.43;102113.34;10539919;28;20077;-59
2022/01/01 13:29:29;;;;;;;10.07;4.07;;;;;;;13.54;95.03;102098.63;10539699;28;20044;-60
2022/01/01 13:34:35;;;;;;;7.43;4.25;;;;;;;13.56;94.43;102104.66;10539745;28;20483;-60
2022/01/01 13:39:37;;;;;;;7.35;3.67;;;;;;;13.42;95.60;102101.03;10539347;28;20066;-60
2022/01/01 13:44:44;;;;;;;10.30;4.05;;;;;;;13.49;96.65;102099.78;10542305;28;20044;-59
2022/01/01 13:49:50;;;;;;;9.05;3.75;;;;;;;13.45;96.55;102096.47;10547340;28;20048;-61
2022/01/01 13:55:04;;;;;;;9.75;3.90;;;;;;;13.38;97.10;102105.56;10547099;28;20048;-60
2022/01/01 14:00:07;;;;;;;6.30;3.70;;;;;;;13.31;97.31;102091.81;10546886;28;20522;-60
2022/01/01 14:05:10;;;;;;;5.72;3.42;;;;;;;13.08;97.67;102085.03;10547368;28;20123;-59
2022/01/01 14:10:16;;;;;;;5.00;3.50;;;;;;;13.19;99.01;102089.78;10546410;28;20484;-60
2022/01/01 14:15:20;;;;;;;4.90;4.40;;;;;;;13.23;97.82;102091.34;10545926;28;20056;-60
2022/01/01 14:20:29;;;;;;;8.50;3.65;;;;;;;13.36;98.02;102105.66;10546149;28;20056;-60
2022/01/01 14:25:33;;;;;;;10.13;4.10;;;;;;;13.09;99.07;102112.19;10545952;28;20555;-60
2022/01/01 14:30:35;;;;;;;4.28;3.00;;;;;;;13.12;97.89;102105.00;10546010;28;20400;-59
2022/01/01 14:35:38;;;;;;;6.70;3.22;;;;;;;13.10;99.46;102112.13;10546044;28;20476;-60
2022/01/01 14:40:40;;;;;;;6.07;3.97;;;;;;;13.00;99.36;102101.16;10545516;28;20055;-59
2022/01/01 14:45:44;;;;;;;8.38;4.57;;;;;;;12.91;100.00;102098.09;10544790;28;20051;-60
2022/01/01 14:50:57;;;;;;;6.95;4.43;;;;;;;12.76;100.00;102094.41;10545184;28;20052;-59
2022/01/01 14:56:39;;;;;;;7.90;4.63;;;;;;;12.61;100.00;102099.47;10545047;28;20411;-59
2022/01/01 15:01:43;;;;;;;7.33;4.47;;;;;;;12.63;100.00;102092.34;10544888;28;20051;-60
2022/01/01 15:06:49;;;;;;;7.32;4.65;;;;;;;12.48;100.00;102095.69;10543647;28;20097;-59
2022/01/01 15:11:55;;;;;;;5.80;4.90;;;;;;;12.38;100.00;102092.59;10543526;28;20444;-59
2022/01/01 15:16:58;;;;;;;10.88;5.72;;;;;;;12.28;100.00;102070.28;10544493;28;20062;-59
2022/01/01 15:22:15;;;;;;;7.80;5.55;;;;;;;12.06;100.00;102073.84;10544035;28;20048;-59
2022/01/01 15:27:19;;;;;;;8.95;5.75;;;;;;;12.13;100.00;102076.22;10543519;28;20047;-60
2022/01/01 15:37:52;;;;;;;9.25;6.22;;;;;;;12.15;100.00;102056.00;10542879;28;20403;-59
2022/01/01 15:42:56;;;;;;;9.50;6.82;;;;;;;11.97;100.00;102052.41;10542625;28;20056;-59
2022/01/01 15:47:58;;;;;;;17.63;7.60;;;;;;;11.98;100.00;102049.72;10542883;28;20052;-59
2022/01/01 15:53:01;;;;;;;10.10;7.00;;;;;;;11.89;100.00;102043.06;10541243;28;20039;-59
2022/01/01 15:58:04;;;;;;;12.27;7.57;;;;;;;11.91;100.00;102037.78;10540966;28;20048;-59
2022/01/01 16:03:11;;;;;;;13.55;6.53;;;;;;;11.89;100.00;102034.34;10542065;28;20052;-61
2022/01/01 16:08:21;;;;;;;11.50;6.50;;;;;;;11.96;100.00;102017.44;10540698;28;20048;-60
2022/01/01 16:13:28;;;;;;;7.03;6.07;;;;;;;11.94;100.00;102021.91;10541671;28;20052;-59
2022/01/01 16:18:45;;;;;;;11.15;5.47;;;;;;;12.03;100.00;101997.03;10542097;28;20400;-59
2022/01/01 16:23:48;;;;;;;7.63;5.05;;;;;;;11.95;100.00;101991.25;10540971;28;20516;-60
2022/01/01 16:28:50;;;;;;;7.70;5.22;;;;;;;12.00;100.00;101997.16;10541426;28;20048;-59
2022/01/01 16:33:54;;;;;;;5.80;4.35;;;;;;;12.12;100.00;101980.00;10540814;28;20044;-59
2022/01/01 16:39:02;;;;;;;5.00;4.00;;;;;;;12.01;100.00;101978.72;10540159;28;20511;-60
2022/01/01 16:44:30;;;;;;;5.57;4.13;;;;;;;11.99;100.00;101970.06;10540487;28;20044;-60
2022/01/01 16:49:38;;;;;;;7.20;3.90;;;;;;;11.99;100.00;101982.34;10540967;28;20126;-60
2022/01/01 16:54:40;;;;;;;6.07;4.07;;;;;;;11.88;100.00;101973.16;10540664;28;20403;-60
2022/01/01 16:59:44;;;;;;;7.78;3.95;;;;;;;11.98;100.00;101963.09;10539097;28;20048;-59
2022/01/01 17:04:58;;;;;;;9.60;4.43;;;;;;;11.99;100.00;101954.31;10538709;28;20044;-60
2022/01/01 17:10:00;;;;;;;5.43;3.75;;;;;;;11.95;100.00;101954.50;10539992;28;20055;-60
2022/01/01 17:15:05;;;;;;;6.45;3.70;;;;;;;11.97;100.00;101935.16;10539628;28;20403;-60
2022/01/01 17:20:18;;;;;;;9.68;4.07;;;;;;;12.01;100.00;101935.88;10538912;28;20063;-60
2022/01/01 17:25:25;;;;;;;5.35;3.58;;;;;;;12.10;100.00;101918.84;10538760;28;20049;-60
2022/01/01 17:30:29;;;;;;;5.53;3.65;;;;;;;11.98;100.00;101905.34;10539094;28;20460;-60
2022/01/01 17:35:39;;;;;;;7.25;3.72;;;;;;;11.96;100.00;101912.44;10539534;28;20500;-60
2022/01/01 17:40:45;;;;;;;7.35;4.38;;;;;;;11.89;100.00;101922.34;10538323;28;20055;-60
2022/01/01 17:45:49;;;;;;;4.78;3.05;;;;;;;12.03;100.00;101921.75;10539537;28;20048;-59
2022/01/01 17:51:02;;;;;;;4.72;2.85;;;;;;;12.19;100.00;101929.78;10539175;28;20048;-60
2022/01/01 17:56:06;;;;;;;6.13;3.08;;;;;;;12.03;100.00;101927.00;10538252;28;20048;-60
2022/01/01 18:01:10;;;;;;;5.10;3.28;;;;;;;12.10;100.00;101919.69;10538894;28;20059;-60
2022/01/01 18:06:19;;;;;;;3.17;2.88;;;;;;;12.06;100.00;101897.97;10537897;28;20048;-60
2022/01/01 18:11:21;;;;;;;6.72;3.25;;;;;;;11.90;100.00;101878.56;10538864;28;20044;-60
2022/01/01 18:16:24;;;;;;;4.18;3.22;;;;;;;11.87;100.00;101870.88;10537799;28;20480;-60
2022/01/01 18:21:27;;;;;;;5.75;4.22;;;;;;;11.94;100.00;101881.97;10539526;28;20052;-60
2022/01/01 18:26:36;;;;;;;7.85;3.83;;;;;;;11.84;100.00;101918.22;10538273;28;20040;-60
2022/01/01 18:31:39;;;;;;;7.55;3.85;;;;;;;11.84;100.00;101908.56;10542508;28;20052;-60
2022/01/01 18:36:43;;;;;;;6.53;4.13;;;;;;;11.85;100.00;101919.91;10544836;28;20101;-60
2022/01/01 18:41:49;;;;;;;6.15;3.95;;;;;;;11.80;100.00;101911.41;10545437;28;20044;-60
2022/01/01 18:46:52;;;;;;;5.85;3.65;;;;;;;11.92;100.00;101902.16;10545209;28;20051;-59
2022/01/01 18:51:55;;;;;;;3.92;3.53;;;;;;;11.83;100.00;101922.59;10544908;28;20480;-59
2022/01/01 18:57:15;;;;;;;7.50;3.80;;;;;;;11.78;100.00;101908.84;10544138;28;20067;-60
2022/01/01 19:02:20;;;;;;;3.95;3.63;;;;;;;11.95;100.00;101918.63;10543437;28;20063;-60
2022/01/01 19:07:24;;;;;;;3.72;3.35;;;;;;;11.78;100.00;101884.38;10544311;28;20434;-60
2022/01/01 19:12:27;;;;;;;5.35;3.38;;;;;;;11.89;100.00;101875.09;10544295;28;20058;-59
2022/01/01 19:17:31;;;;;;;5.93;3.50;;;;;;;11.82;100.00;101886.81;10544015;28;20496;-59
2022/01/01 19:22:33;;;;;;;6.57;3.50;;;;;;;11.95;100.00;101876.63;10544124;28;20044;-60
2022/01/01 19:27:38;;;;;;;5.53;3.65;;;;;;;11.96;100.00;101880.97;10543435;28;20047;-59
2022/01/01 19:32:42;;;;;;;7.10;4.20;;;;;;;11.72;100.00;101848.81;10543208;28;20503;-60
2022/01/01 19:37:45;;;;;;;6.60;3.90;;;;;;;11.72;100.00;101859.28;10542056;28;20048;-60
2022/01/01 19:43:02;;;;;;;6.03;4.40;;;;;;;11.69;100.00;101862.88;10542102;28;20117;-59
2022/01/01 19:48:06;;;;;;;8.80;4.95;;;;;;;11.57;100.00;101841.63;10542941;28;20056;-60
2022/01/01 19:53:11;;;;;;;6.47;4.75;;;;;;;11.53;100.00;101857.50;10542479;28;20048;-59
2022/01/01 19:58:15;;;;;;;11.02;4.07;;;;;;;11.57;100.00;101850.34;10542618;28;20051;-59
2022/01/01 20:03:18;;;;;;;6.35;4.13;;;;;;;11.58;100.00;101838.91;10542460;28;20047;-60
2022/01/01 20:08:20;;;;;;;5.40;3.47;;;;;;;11.66;100.00;101835.94;10542335;28;20048;-61
2022/01/01 20:13:22;;;;;;;4.78;3.92;;;;;;;11.46;100.00;101824.56;10541892;28;20507;-60
2022/01/01 20:18:25;;;;;;;5.22;3.53;;;;;;;11.42;100.00;101827.44;10541574;28;20500;-61
2022/01/01 20:23:27;;;;;;;4.95;4.18;;;;;;;11.42;100.00;101827.44;10541345;28;20514;-59
2022/01/01 20:28:29;;;;;;;8.07;3.33;;;;;;;11.28;100.00;101825.38;10540827;28;20411;-59
2022/01/01 20:33:31;;;;;;;5.05;3.40;;;;;;;11.35;100.00;101829.47;10540969;28;20407;-59
2022/01/01 20:38:42;;;;;;;8.00;4.07;;;;;;;11.41;100.00;101833.56;10541513;28;20047;-59
2022/01/01 20:43:44;;;;;;;3.92;3.38;;;;;;;11.30;100.00;101832.28;10539445;28;20050;-59
2022/01/01 20:48:47;;;;;;;5.75;3.28;;;;;;;11.52;100.00;101826.09;10540610;28;20044;-60
2022/01/01 20:53:50;;;;;;;6.43;3.70;;;;;;;11.40;100.00;101808.25;10540203;28;20044;-59
2022/01/01 20:58:52;;;;;;;9.13;4.18;;;;;;;11.29;100.00;101819.25;10540397;28;20048;-60
2022/01/01 21:04:00;;;;;;;7.13;4.55;;;;;;;11.22;100.00;101831.75;10539958;28;20059;-60
2022/01/01 21:09:04;;;;;;;3.67;3.10;;;;;;;11.41;100.00;101836.19;10540146;28;20055;-60
2022/01/01 21:14:08;;;;;;;7.65;4.20;;;;;;;11.30;100.00;101826.19;10538574;28;20044;-60
2022/01/01 21:19:10;;;;;;;5.68;3.78;;;;;;;11.29;100.00;101799.09;10539756;28;20395;-59
2022/01/01 21:24:14;;;;;;;7.43;3.13;;;;;;;11.25;100.00;101791.47;10539590;28;20050;-60
2022/01/01 21:29:16;;;;;;;6.05;3.55;;;;;;;11.28;100.00;101767.72;10540075;28;20122;-60
2022/01/01 21:34:19;;;;;;;6.70;3.63;;;;;;;11.33;100.00;101769.22;10539146;28;20044;-59
2022/01/01 21:39:24;;;;;;;7.18;3.95;;;;;;;11.31;100.00;101742.25;10539787;28;20059;-59
2022/01/01 21:44:26;;;;;;;7.70;4.10;;;;;;;11.33;100.00;101745.63;10539157;28;20158;-59
2022/01/01 21:49:29;;;;;;;3.17;2.92;;;;;;;11.33;100.00;101742.13;10539256;28;20048;-60
2022/01/01 21:54:33;;;;;;;7.95;3.72;;;;;;;11.31;100.00;101737.00;10537909;28;20450;-60
2022/01/01 21:59:35;;;;;;;5.30;3.38;;;;;;;11.47;100.00;101731.03;10539363;28;20051;-60
2022/01/01 22:04:38;;;;;;;7.10;3.47;;;;;;;11.32;100.00;101725.56;10540390;28;20047;-59
2022/01/01 22:09:41;;;;;;;6.25;3.70;;;;;;;11.35;100.00;101721.97;10546701;28;20048;-59
2022/01/01 22:14:43;;;;;;;9.77;3.47;;;;;;;11.31;100.00;101734.38;10546639;28;20056;-60
2022/01/01 22:19:45;;;;;;;5.47;3.78;;;;;;;11.38;100.00;101760.28;10546446;28;20060;-59
2022/01/01 22:24:48;;;;;;;7.40;3.90;;;;;;;11.37;100.00;101774.34;10544912;28;20123;-60
2022/01/01 22:29:50;;;;;;;6.13;4.13;;;;;;;11.36;100.00;101757.72;10546076;28;20487;-60
2022/01/01 22:34:53;;;;;;;5.50;4.03;;;;;;;11.33;100.00;101766.59;10545805;28;20051;-60
2022/01/01 22:39:55;;;;;;;8.38;3.88;;;;;;;11.22;100.00;101763.59;10545889;28;20056;-60
2022/01/01 22:44:57;;;;;;;3.85;3.28;;;;;;;11.34;100.00;101772.69;10546101;28;20046;-60
2022/01/01 22:50:00;;;;;;;7.07;3.92;;;;;;;11.49;100.00;101764.13;10545227;28;20040;-60
2022/01/01 22:55:02;;;;;;;3.55;2.58;;;;;;;11.32;100.00;101780.63;10545095;28;20044;-59
2022/01/01 23:00:19;;;;;;;6.15;3.95;;;;;;;11.11;100.00;101763.22;10544845;28;20056;-60
2022/01/01 23:05:21;;;;;;;7.95;3.38;;;;;;;11.51;100.00;101748.31;10544586;28;20075;-60